Terminal Aerodrome Forecast
Issued by NWS

Home | Current Version | Previous Version | Text Only | Print | Product List | Glossary On
Versions: 1 2 3 4 5 6 7 8 9 10 11 12 13 14 15 16 17 18 19 20 21 22 23 24 25
000
FTUS44 KLZK 210538
TAFLIT
TAF
KLIT 210538Z 2106/2206 24010G15KT P6SM VCSH BKN015 OVC050
      WS020/19040KT
      TEMPO 2106/2109 4SM BR SCT008 OVC020
     FM210900 36010G16KT 6SM -RA BR SCT008 OVC030
      TEMPO 2109/2112 2SM -TSRA BR OVC015CB
     FM211400 26008G16KT 4SM RA BR VCTS BKN005CB OVC030=

USA.gov is the U.S. government's official web portal to all federal, state and local government web resources and services.